sensor_id;sensor_type;location;lat;lon;timestamp;temperature;humidity
9448;DHT22;4762;48.128;11.376;2022-10-10T00:01:43;9.60;98.40
9448;DHT22;4762;48.128;11.376;2022-10-10T00:03:48;9.60;98.50
9448;DHT22;4762;48.128;11.376;2022-10-10T00:05:52;9.70;98.70
9448;DHT22;4762;48.128;11.376;2022-10-10T00:07:55;9.70;98.30
9448;DHT22;4762;48.128;11.376;2022-10-10T00:09:58;9.80;98.00
9448;DHT22;4762;48.128;11.376;2022-10-10T00:12:01;9.90;98.00
9448;DHT22;4762;48.128;11.376;2022-10-10T00:14:03;9.90;97.90
9448;DHT22;4762;48.128;11.376;2022-10-10T00:16:06;9.90;97.90
9448;DHT22;4762;48.128;11.376;2022-10-10T00:18:09;9.90;97.90
9448;DHT22;4762;48.128;11.376;2022-10-10T00:20:14;9.80;98.30
9448;DHT22;4762;48.128;11.376;2022-10-10T00:22:17;9.90;98.40
9448;DHT22;4762;48.128;11.376;2022-10-10T00:24:28;10.00;98.60
9448;DHT22;4762;48.128;11.376;2022-10-10T00:26:32;9.90;98.90
9448;DHT22;4762;48.128;11.376;2022-10-10T00:28:35;9.90;98.90
9448;DHT22;4762;48.128;11.376;2022-10-10T00:30:38;9.90;98.60
9448;DHT22;4762;48.128;11.376;2022-10-10T00:32:41;9.90;98.50
9448;DHT22;4762;48.128;11.376;2022-10-10T00:34:45;10.00;98.40
9448;DHT22;4762;48.128;11.376;2022-10-10T00:36:48;10.10;98.40
9448;DHT22;4762;48.128;11.376;2022-10-10T00:38:53;10.00;98.40
9448;DHT22;4762;48.128;11.376;2022-10-10T00:40:56;10.10;99.00
9448;DHT22;4762;48.128;11.376;2022-10-10T00:42:59;10.00;99.30
9448;DHT22;4762;48.128;11.376;2022-10-10T00:47:19;10.10;99.00
9448;DHT22;4762;48.128;11.376;2022-10-10T00:49:23;10.10;99.30
9448;DHT22;4762;48.128;11.376;2022-10-10T00:51:25;10.20;99.40
9448;DHT22;4762;48.128;11.376;2022-10-10T00:53:33;10.20;99.30
9448;DHT22;4762;48.128;11.376;2022-10-10T00:55:36;10.10;99.90
9448;DHT22;4762;48.128;11.376;2022-10-10T00:57:38;10.10;99.90
9448;DHT22;4762;48.128;11.376;2022-10-10T00:59:41;10.10;99.90
9448;DHT22;4762;48.128;11.376;2022-10-10T01:01:44;10.20;99.90
9448;DHT22;4762;48.128;11.376;2022-10-10T01:03:50;10.20;99.90
9448;DHT22;4762;48.128;11.376;2022-10-10T01:05:53;10.30;99.90
9448;DHT22;4762;48.128;11.376;2022-10-10T01:07:55;10.20;99.90
9448;DHT22;4762;48.128;11.376;2022-10-10T01:10:04;10.30;99.90
9448;DHT22;4762;48.128;11.376;2022-10-10T01:12:12;10.30;99.90
9448;DHT22;4762;48.128;11.376;2022-10-10T01:14:26;10.30;99.90
9448;DHT22;4762;48.128;11.376;2022-10-10T01:16:30;10.30;99.90
9448;DHT22;4762;48.128;11.376;2022-10-10T01:18:40;10.30;99.90
9448;DHT22;4762;48.128;11.376;2022-10-10T01:20:52;10.30;99.90
9448;DHT22;4762;48.128;11.376;2022-10-10T01:23:00;10.30;99.90
9448;DHT22;4762;48.128;11.376;2022-10-10T01:25:22;10.30;99.90
9448;DHT22;4762;48.128;11.376;2022-10-10T01:27:31;10.40;99.90
9448;DHT22;4762;48.128;11.376;2022-10-10T01:29:42;10.50;99.90
9448;DHT22;4762;48.128;11.376;2022-10-10T01:31:45;10.50;99.90
9448;DHT22;4762;48.128;11.376;2022-10-10T01:34:03;10.50;99.90
9448;DHT22;4762;48.128;11.376;2022-10-10T01:36:15;10.50;99.90
9448;DHT22;4762;48.128;11.376;2022-10-10T01:38:35;10.40;99.90
9448;DHT22;4762;48.128;11.376;2022-10-10T01:40:45;10.40;99.90
9448;DHT22;4762;48.128;11.376;2022-10-10T02:00:08;10.50;99.90
9448;DHT22;4762;48.128;11.376;2022-10-10T02:04:48;10.50;99.90
9448;DHT22;4762;48.128;11.376;2022-10-10T02:06:52;10.50;99.90
9448;DHT22;4762;48.128;11.376;2022-10-10T02:08:55;10.50;99.90
9448;DHT22;4762;48.128;11.376;2022-10-10T02:10:59;10.40;99.90
9448;DHT22;4762;48.128;11.376;2022-10-10T02:13:07;10.40;99.90
9448;DHT22;4762;48.128;11.376;2022-10-10T02:15:14;10.50;99.90
9448;DHT22;4762;48.128;11.376;2022-10-10T02:17:16;10.60;99.90
9448;DHT22;4762;48.128;11.376;2022-10-10T02:19:20;10.60;99.90
9448;DHT22;4762;48.128;11.376;2022-10-10T02:21:24;10.60;99.90
9448;DHT22;4762;48.128;11.376;2022-10-10T02:23:28;10.70;99.90
9448;DHT22;4762;48.128;11.376;2022-10-10T02:25:32;10.60;99.90
9448;DHT22;4762;48.128;11.376;2022-10-10T02:27:45;10.60;99.90
9448;DHT22;4762;48.128;11.376;2022-10-10T02:29:49;10.50;99.90
9448;DHT22;4762;48.128;11.376;2022-10-10T02:32:01;10.60;99.90
9448;DHT22;4762;48.128;11.376;2022-10-10T02:34:12;10.60;99.90
9448;DHT22;4762;48.128;11.376;2022-10-10T02:36:13;10.60;99.90
9448;DHT22;4762;48.128;11.376;2022-10-10T02:38:18;10.60;99.90
9448;DHT22;4762;48.128;11.376;2022-10-10T02:40:27;10.70;99.90
9448;DHT22;4762;48.128;11.376;2022-10-10T02:42:30;10.70;99.90
9448;DHT22;4762;48.128;11.376;2022-10-10T02:44:36;10.80;99.90
9448;DHT22;4762;48.128;11.376;2022-10-10T02:46:38;10.80;99.90
9448;DHT22;4762;48.128;11.376;2022-10-10T02:48:41;10.70;99.90
9448;DHT22;4762;48.128;11.376;2022-10-10T02:50:46;10.50;99.90
9448;DHT22;4762;48.128;11.376;2022-10-10T02:52:50;10.50;99.90
9448;DHT22;4762;48.128;11.376;2022-10-10T02:54:53;10.40;99.90
9448;DHT22;4762;48.128;11.376;2022-10-10T02:56:55;10.60;99.90
9448;DHT22;4762;48.128;11.376;2022-10-10T02:58:59;10.60;99.90
9448;DHT22;4762;48.128;11.376;2022-10-10T03:01:04;10.60;99.90
9448;DHT22;4762;48.128;11.376;2022-10-10T03:03:11;10.60;99.90
9448;DHT22;4762;48.128;11.376;2022-10-10T03:05:20;10.50;99.90
9448;DHT22;4762;48.128;11.376;2022-10-10T03:07:27;10.60;99.90
9448;DHT22;4762;48.128;11.376;2022-10-10T03:09:43;10.50;99.90
9448;DHT22;4762;48.128;11.376;2022-10-10T03:11:50;10.60;99.90
9448;DHT22;4762;48.128;11.376;2022-10-10T03:14:01;10.40;99.90
9448;DHT22;4762;48.128;11.376;2022-10-10T03:16:05;10.30;99.90
9448;DHT22;4762;48.128;11.376;2022-10-10T03:18:09;10.30;99.90
9448;DHT22;4762;48.128;11.376;2022-10-10T03:37:32;10.10;99.90
9448;DHT22;4762;48.128;11.376;2022-10-10T03:39:36;10.10;99.90
9448;DHT22;4762;48.128;11.376;2022-10-10T03:41:40;10.00;99.90
9448;DHT22;4762;48.128;11.376;2022-10-10T03:43:42;9.90;99.90
9448;DHT22;4762;48.128;11.376;2022-10-10T03:45:46;9.80;99.90
9448;DHT22;4762;48.128;11.376;2022-10-10T03:47:49;9.90;99.90
9448;DHT22;4762;48.128;11.376;2022-10-10T04:07:11;9.50;99.90
9448;DHT22;4762;48.128;11.376;2022-10-10T04:09:17;9.50;99.90
9448;DHT22;4762;48.128;11.376;2022-10-10T04:11:23;9.50;99.90
9448;DHT22;4762;48.128;11.376;2022-10-10T04:13:26;9.50;99.90
9448;DHT22;4762;48.128;11.376;2022-10-10T04:15:32;9.40;99.90
9448;DHT22;4762;48.128;11.376;2022-10-10T04:17:36;9.40;99.90
9448;DHT22;4762;48.128;11.376;2022-10-10T04:19:43;9.40;99.90
9448;DHT22;4762;48.128;11.376;2022-10-10T04:21:48;9.40;99.90
9448;DHT22;4762;48.128;11.376;2022-10-10T04:23:53;9.40;99.90
9448;DHT22;4762;48.128;11.376;2022-10-10T04:25:56;9.40;99.90
9448;DHT22;4762;48.128;11.376;2022-10-10T04:28:04;9.60;99.90
9448;DHT22;4762;48.128;11.376;2022-10-10T04:52:31;9.30;99.90
9448;DHT22;4762;48.128;11.376;2022-10-10T04:54:36;9.20;99.90
9448;DHT22;4762;48.128;11.376;2022-10-10T04:56:42;9.20;99.90
9448;DHT22;4762;48.128;11.376;2022-10-10T04:58:46;9.10;99.90
9448;DHT22;4762;48.128;11.376;2022-10-10T05:00:51;9.10;99.90
9448;DHT22;4762;48.128;11.376;2022-10-10T05:02:56;9.00;99.90
9448;DHT22;4762;48.128;11.376;2022-10-10T05:05:00;9.10;99.90
9448;DHT22;4762;48.128;11.376;2022-10-10T05:24:22;9.00;99.90
9448;DHT22;4762;48.128;11.376;2022-10-10T05:26:26;8.90;99.90
9448;DHT22;4762;48.128;11.376;2022-10-10T05:28:31;9.00;99.90
9448;DHT22;4762;48.128;11.376;2022-10-10T05:30:33;8.80;99.90
9448;DHT22;4762;48.128;11.376;2022-10-10T05:32:40;8.80;99.90
9448;DHT22;4762;48.128;11.376;2022-10-10T05:34:44;8.80;99.90
9448;DHT22;4762;48.128;11.376;2022-10-10T05:36:47;8.80;99.90
9448;DHT22;4762;48.128;11.376;2022-10-10T05:38:49;8.80;99.90
9448;DHT22;4762;48.128;11.376;2022-10-10T05:40:57;8.80;99.90
9448;DHT22;4762;48.128;11.376;2022-10-10T05:43:00;8.80;99.90
9448;DHT22;4762;48.128;11.376;2022-10-10T05:45:04;8.80;99.90
9448;DHT22;4762;48.128;11.376;2022-10-10T05:47:09;8.70;99.90
9448;DHT22;4762;48.128;11.376;2022-10-10T05:49:11;8.80;99.90
9448;DHT22;4762;48.128;11.376;2022-10-10T05:51:14;8.70;99.90
9448;DHT22;4762;48.128;11.376;2022-10-10T05:53:16;8.70;99.90
9448;DHT22;4762;48.128;11.376;2022-10-10T05:55:19;8.60;99.90
9448;DHT22;4762;48.128;11.376;2022-10-10T05:57:22;8.70;99.90
9448;DHT22;4762;48.128;11.376;2022-10-10T05:59:24;8.80;99.90
9448;DHT22;4762;48.128;11.376;2022-10-10T06:01:27;8.80;99.90
9448;DHT22;4762;48.128;11.376;2022-10-10T06:03:29;8.90;99.90
9448;DHT22;4762;48.128;11.376;2022-10-10T06:05:35;9.00;99.90
9448;DHT22;4762;48.128;11.376;2022-10-10T06:07:38;9.00;99.90
9448;DHT22;4762;48.128;11.376;2022-10-10T06:09:40;9.10;99.90
9448;DHT22;4762;48.128;11.376;2022-10-10T06:11:43;9.00;99.90
9448;DHT22;4762;48.128;11.376;2022-10-10T06:13:47;9.00;99.90
9448;DHT22;4762;48.128;11.376;2022-10-10T06:15:51;9.20;99.90
9448;DHT22;4762;48.128;11.376;2022-10-10T06:17:58;9.30;99.90
9448;DHT22;4762;48.128;11.376;2022-10-10T06:20:02;9.30;99.90
9448;DHT22;4762;48.128;11.376;2022-10-10T06:22:05;9.40;99.90
9448;DHT22;4762;48.128;11.376;2022-10-10T06:24:11;9.50;99.90
9448;DHT22;4762;48.128;11.376;2022-10-10T06:26:17;9.40;99.90
9448;DHT22;4762;48.128;11.376;2022-10-10T06:28:20;9.50;99.90
9448;DHT22;4762;48.128;11.376;2022-10-10T06:30:23;9.60;99.90
9448;DHT22;4762;48.128;11.376;2022-10-10T06:32:25;9.50;99.70
9448;DHT22;4762;48.128;11.376;2022-10-10T06:34:28;9.60;99.90
9448;DHT22;4762;48.128;11.376;2022-10-10T06:36:33;9.70;99.70
9448;DHT22;4762;48.128;11.376;2022-10-10T06:38:37;9.70;99.10
9448;DHT22;4762;48.128;11.376;2022-10-10T06:40:39;9.80;99.50
9448;DHT22;4762;48.128;11.376;2022-10-10T06:42:43;9.90;99.80
9448;DHT22;4762;48.128;11.376;2022-10-10T06:44:47;9.90;99.50
9448;DHT22;4762;48.128;11.376;2022-10-10T06:46:49;10.00;99.30
9448;DHT22;4762;48.128;11.376;2022-10-10T06:48:52;10.10;98.90
9448;DHT22;4762;48.128;11.376;2022-10-10T06:50:57;10.10;99.10
9448;DHT22;4762;48.128;11.376;2022-10-10T06:52:59;10.00;99.20
9448;DHT22;4762;48.128;11.376;2022-10-10T06:55:01;10.20;99.20
9448;DHT22;4762;48.128;11.376;2022-10-10T06:57:04;10.30;98.70
9448;DHT22;4762;48.128;11.376;2022-10-10T06:59:06;10.20;98.90
9448;DHT22;4762;48.128;11.376;2022-10-10T07:01:09;10.40;98.60
9448;DHT22;4762;48.128;11.376;2022-10-10T07:03:11;10.60;99.60
9448;DHT22;4762;48.128;11.376;2022-10-10T07:05:16;10.60;99.10
9448;DHT22;4762;48.128;11.376;2022-10-10T07:07:19;10.80;99.10
9448;DHT22;4762;48.128;11.376;2022-10-10T07:09:21;11.10;99.20
9448;DHT22;4762;48.128;11.376;2022-10-10T07:11:24;11.00;98.30
9448;DHT22;4762;48.128;11.376;2022-10-10T07:13:27;11.10;98.70
9448;DHT22;4762;48.128;11.376;2022-10-10T07:15:30;11.10;98.50
9448;DHT22;4762;48.128;11.376;2022-10-10T07:17:33;11.20;98.60
9448;DHT22;4762;48.128;11.376;2022-10-10T07:19:36;11.20;98.80
9448;DHT22;4762;48.128;11.376;2022-10-10T07:21:39;11.20;97.80
9448;DHT22;4762;48.128;11.376;2022-10-10T07:23:42;11.20;98.50
9448;DHT22;4762;48.128;11.376;2022-10-10T07:25:45;11.50;98.70
9448;DHT22;4762;48.128;11.376;2022-10-10T07:27:47;11.60;97.10
9448;DHT22;4762;48.128;11.376;2022-10-10T07:29:50;11.50;97.50
9448;DHT22;4762;48.128;11.376;2022-10-10T07:31:57;11.70;98.20
9448;DHT22;4762;48.128;11.376;2022-10-10T07:33:59;11.90;98.00
9448;DHT22;4762;48.128;11.376;2022-10-10T07:36:02;12.30;97.30
9448;DHT22;4762;48.128;11.376;2022-10-10T07:38:08;12.20;98.20
9448;DHT22;4762;48.128;11.376;2022-10-10T07:40:14;12.50;98.10
9448;DHT22;4762;48.128;11.376;2022-10-10T07:42:17;12.80;97.50
9448;DHT22;4762;48.128;11.376;2022-10-10T07:44:22;12.70;96.10
9448;DHT22;4762;48.128;11.376;2022-10-10T07:46:26;12.70;95.90
9448;DHT22;4762;48.128;11.376;2022-10-10T07:48:29;12.80;96.00
9448;DHT22;4762;48.128;11.376;2022-10-10T07:50:31;12.80;96.20
9448;DHT22;4762;48.128;11.376;2022-10-10T07:52:35;12.90;95.30
9448;DHT22;4762;48.128;11.376;2022-10-10T07:54:40;13.30;97.00
9448;DHT22;4762;48.128;11.376;2022-10-10T07:56:45;13.50;96.00
9448;DHT22;4762;48.128;11.376;2022-10-10T07:58:47;13.50;95.10
9448;DHT22;4762;48.128;11.376;2022-10-10T08:01:00;13.70;95.10
9448;DHT22;4762;48.128;11.376;2022-10-10T08:03:02;13.80;94.20
9448;DHT22;4762;48.128;11.376;2022-10-10T08:05:05;13.90;94.60
9448;DHT22;4762;48.128;11.376;2022-10-10T08:07:07;13.80;93.10
9448;DHT22;4762;48.128;11.376;2022-10-10T08:09:12;13.70;93.60
9448;DHT22;4762;48.128;11.376;2022-10-10T08:11:16;13.70;92.90
9448;DHT22;4762;48.128;11.376;2022-10-10T08:30:38;15.20;92.00
9448;DHT22;4762;48.128;11.376;2022-10-10T08:32:38;15.00;90.80
9448;DHT22;4762;48.128;11.376;2022-10-10T08:34:43;15.10;91.80
9448;DHT22;4762;48.128;11.376;2022-10-10T08:36:47;15.30;92.50
9448;DHT22;4762;48.128;11.376;2022-10-10T08:38:50;15.60;91.40
9448;DHT22;4762;48.128;11.376;2022-10-10T08:40:54;15.80;90.80
9448;DHT22;4762;48.128;11.376;2022-10-10T08:43:01;15.90;90.60
9448;DHT22;4762;48.128;11.376;2022-10-10T08:45:02;15.80;90.70
9448;DHT22;4762;48.128;11.376;2022-10-10T08:47:11;16.00;89.10
9448;DHT22;4762;48.128;11.376;2022-10-10T08:49:18;16.20;88.80
9448;DHT22;4762;48.128;11.376;2022-10-10T08:51:25;16.00;88.50
9448;DHT22;4762;48.128;11.376;2022-10-10T08:53:31;16.30;89.80
9448;DHT22;4762;48.128;11.376;2022-10-10T08:55:37;16.40;88.40
9448;DHT22;4762;48.128;11.376;2022-10-10T08:57:47;16.60;89.00
9448;DHT22;4762;48.128;11.376;2022-10-10T08:59:48;16.80;88.30
9448;DHT22;4762;48.128;11.376;2022-10-10T09:01:54;16.80;87.40
9448;DHT22;4762;48.128;11.376;2022-10-10T09:03:58;16.80;88.20
9448;DHT22;4762;48.128;11.376;2022-10-10T09:08:32;17.20;85.80
9448;DHT22;4762;48.128;11.376;2022-10-10T09:10:53;17.10;85.10
9448;DHT22;4762;48.128;11.376;2022-10-10T09:13:18;17.20;86.40
9448;DHT22;4762;48.128;11.376;2022-10-10T09:15:24;17.20;86.00
9448;DHT22;4762;48.128;11.376;2022-10-10T09:17:39;17.50;85.60
9448;DHT22;4762;48.128;11.376;2022-10-10T09:19:51;17.60;84.50
9448;DHT22;4762;48.128;11.376;2022-10-10T09:21:53;17.80;84.20
9448;DHT22;4762;48.128;11.376;2022-10-10T09:24:18;18.10;84.50
9448;DHT22;4762;48.128;11.376;2022-10-10T09:29:06;18.00;85.10
9448;DHT22;4762;48.128;11.376;2022-10-10T09:31:18;18.60;84.10
9448;DHT22;4762;48.128;11.376;2022-10-10T09:33:40;18.80;84.50
9448;DHT22;4762;48.128;11.376;2022-10-10T09:35:40;18.50;83.20
9448;DHT22;4762;48.128;11.376;2022-10-10T09:37:43;18.90;81.80
9448;DHT22;4762;48.128;11.376;2022-10-10T09:39:52;18.70;80.80
9448;DHT22;4762;48.128;11.376;2022-10-10T09:41:56;18.00;81.90
9448;DHT22;4762;48.128;11.376;2022-10-10T09:43:58;18.10;83.00
9448;DHT22;4762;48.128;11.376;2022-10-10T09:46:10;18.40;82.10
9448;DHT22;4762;48.128;11.376;2022-10-10T09:53:27;18.30;81.80
9448;DHT22;4762;48.128;11.376;2022-10-10T09:55:36;18.50;81.70
9448;DHT22;4762;48.128;11.376;2022-10-10T09:57:40;18.90;83.70
9448;DHT22;4762;48.128;11.376;2022-10-10T09:59:44;19.10;81.80
9448;DHT22;4762;48.128;11.376;2022-10-10T10:01:59;19.10;81.20
9448;DHT22;4762;48.128;11.376;2022-10-10T10:04:13;18.90;82.40
9448;DHT22;4762;48.128;11.376;2022-10-10T10:06:21;19.10;80.60
9448;DHT22;4762;48.128;11.376;2022-10-10T10:08:37;19.00;80.60
9448;DHT22;4762;48.128;11.376;2022-10-10T10:10:43;19.00;81.00
9448;DHT22;4762;48.128;11.376;2022-10-10T10:22:48;19.40;79.90
9448;DHT22;4762;48.128;11.376;2022-10-10T11:21:45;20.30;77.70
9448;DHT22;4762;48.128;11.376;2022-10-10T11:24:02;20.00;78.80
9448;DHT22;4762;48.128;11.376;2022-10-10T11:28:54;20.40;78.60
9448;DHT22;4762;48.128;11.376;2022-10-10T11:31:11;20.60;79.30
9448;DHT22;4762;48.128;11.376;2022-10-10T11:33:20;20.90;78.30
9448;DHT22;4762;48.128;11.376;2022-10-10T11:35:39;20.00;78.10
9448;DHT22;4762;48.128;11.376;2022-10-10T11:37:42;19.70;79.20
9448;DHT22;4762;48.128;11.376;2022-10-10T11:57:31;21.10;77.60
9448;DHT22;4762;48.128;11.376;2022-10-10T11:59:59;21.40;77.50
9448;DHT22;4762;48.128;11.376;2022-10-10T12:02:32;21.60;74.90
9448;DHT22;4762;48.128;11.376;2022-10-10T12:04:38;21.10;75.80
9448;DHT22;4762;48.128;11.376;2022-10-10T12:09:01;21.00;75.80
9448;DHT22;4762;48.128;11.376;2022-10-10T12:11:18;20.70;77.00
9448;DHT22;4762;48.128;11.376;2022-10-10T12:13:27;21.40;77.90
9448;DHT22;4762;48.128;11.376;2022-10-10T12:15:34;21.60;75.60
9448;DHT22;4762;48.128;11.376;2022-10-10T12:17:49;21.20;75.30
9448;DHT22;4762;48.128;11.376;2022-10-10T12:19:53;21.00;75.70
9448;DHT22;4762;48.128;11.376;2022-10-10T12:22:04;20.90;75.90
9448;DHT22;4762;48.128;11.376;2022-10-10T12:24:10;20.70;76.80
9448;DHT22;4762;48.128;11.376;2022-10-10T12:26:16;21.00;76.50
9448;DHT22;4762;48.128;11.376;2022-10-10T12:31:17;21.00;76.40
9448;DHT22;4762;48.128;11.376;2022-10-10T12:34:15;20.70;76.50
9448;DHT22;4762;48.128;11.376;2022-10-10T12:38:41;20.90;78.00
9448;DHT22;4762;48.128;11.376;2022-10-10T12:41:18;21.30;75.60
9448;DHT22;4762;48.128;11.376;2022-10-10T13:03:46;20.70;78.40
9448;DHT22;4762;48.128;11.376;2022-10-10T13:05:53;20.60;78.80
9448;DHT22;4762;48.128;11.376;2022-10-10T13:33:18;20.70;78.30
9448;DHT22;4762;48.128;11.376;2022-10-10T13:35:27;20.70;78.50
9448;DHT22;4762;48.128;11.376;2022-10-10T13:37:41;20.70;78.80
9448;DHT22;4762;48.128;11.376;2022-10-10T14:07:21;20.80;77.00
9448;DHT22;4762;48.128;11.376;2022-10-10T14:09:26;20.70;77.60
9448;DHT22;4762;48.128;11.376;2022-10-10T14:11:36;20.30;77.80
9448;DHT22;4762;48.128;11.376;2022-10-10T14:13:43;20.50;78.20
9448;DHT22;4762;48.128;11.376;2022-10-10T14:15:46;20.60;77.80
9448;DHT22;4762;48.128;11.376;2022-10-10T14:17:51;20.60;77.50
9448;DHT22;4762;48.128;11.376;2022-10-10T14:19:55;20.50;78.60
9448;DHT22;4762;48.128;11.376;2022-10-10T14:22:11;20.60;78.10
9448;DHT22;4762;48.128;11.376;2022-10-10T14:24:19;20.60;77.80
9448;DHT22;4762;48.128;11.376;2022-10-10T14:26:38;20.20;78.10
9448;DHT22;4762;48.128;11.376;2022-10-10T14:28:43;20.10;78.00
9448;DHT22;4762;48.128;11.376;2022-10-10T14:30:49;20.00;77.90
9448;DHT22;4762;48.128;11.376;2022-10-10T14:32:56;19.80;78.40
9448;DHT22;4762;48.128;11.376;2022-10-10T14:35:00;19.90;78.50
9448;DHT22;4762;48.128;11.376;2022-10-10T14:37:05;20.10;78.30
9448;DHT22;4762;48.128;11.376;2022-10-10T14:56:26;20.20;78.80
9448;DHT22;4762;48.128;11.376;2022-10-10T14:58:34;20.20;78.60
9448;DHT22;4762;48.128;11.376;2022-10-10T15:00:37;20.00;78.70
9448;DHT22;4762;48.128;11.376;2022-10-10T15:02:41;20.20;79.20
9448;DHT22;4762;48.128;11.376;2022-10-10T15:04:45;20.00;79.30
9448;DHT22;4762;48.128;11.376;2022-10-10T15:06:49;19.90;79.20
9448;DHT22;4762;48.128;11.376;2022-10-10T15:08:58;19.90;79.00
9448;DHT22;4762;48.128;11.376;2022-10-10T15:11:14;19.90;80.20
9448;DHT22;4762;48.128;11.376;2022-10-10T15:13:24;19.80;80.30
9448;DHT22;4762;48.128;11.376;2022-10-10T15:15:37;20.00;80.30
9448;DHT22;4762;48.128;11.376;2022-10-10T15:17:41;20.00;80.50
9448;DHT22;4762;48.128;11.376;2022-10-10T15:19:46;20.10;79.70
9448;DHT22;4762;48.128;11.376;2022-10-10T15:21:50;19.70;79.90
9448;DHT22;4762;48.128;11.376;2022-10-10T15:23:56;19.70;80.60
9448;DHT22;4762;48.128;11.376;2022-10-10T15:26:22;19.90;81.30
9448;DHT22;4762;48.128;11.376;2022-10-10T15:45:50;19.60;81.10
9448;DHT22;4762;48.128;11.376;2022-10-10T15:48:03;19.60;81.30
9448;DHT22;4762;48.128;11.376;2022-10-10T16:07:46;18.80;83.80
9448;DHT22;4762;48.128;11.376;2022-10-10T16:09:52;18.70;84.00
9448;DHT22;4762;48.128;11.376;2022-10-10T16:12:00;18.70;83.90
9448;DHT22;4762;48.128;11.376;2022-10-10T16:14:06;18.60;84.80
9448;DHT22;4762;48.128;11.376;2022-10-10T16:16:15;18.40;85.00
9448;DHT22;4762;48.128;11.376;2022-10-10T16:18:20;18.50;84.50
9448;DHT22;4762;48.128;11.376;2022-10-10T16:20:25;18.60;84.70
9448;DHT22;4762;48.128;11.376;2022-10-10T16:22:32;18.60;85.50
9448;DHT22;4762;48.128;11.376;2022-10-10T16:24:45;18.50;85.40
9448;DHT22;4762;48.128;11.376;2022-10-10T16:46:45;17.90;86.90
9448;DHT22;4762;48.128;11.376;2022-10-10T16:49:00;17.80;86.90
9448;DHT22;4762;48.128;11.376;2022-10-10T16:51:19;18.00;86.80
9448;DHT22;4762;48.128;11.376;2022-10-10T16:53:35;17.90;86.70
9448;DHT22;4762;48.128;11.376;2022-10-10T16:55:45;17.80;87.80
9448;DHT22;4762;48.128;11.376;2022-10-10T16:57:53;17.70;87.10
9448;DHT22;4762;48.128;11.376;2022-10-10T17:00:00;17.70;87.10
9448;DHT22;4762;48.128;11.376;2022-10-10T17:02:26;17.50;88.70
9448;DHT22;4762;48.128;11.376;2022-10-10T17:04:39;17.40;88.10
9448;DHT22;4762;48.128;11.376;2022-10-10T17:06:49;17.60;87.70
9448;DHT22;4762;48.128;11.376;2022-10-10T17:09:05;17.50;88.00
9448;DHT22;4762;48.128;11.376;2022-10-10T17:11:33;17.40;88.60
9448;DHT22;4762;48.128;11.376;2022-10-10T17:13:56;17.40;89.00
9448;DHT22;4762;48.128;11.376;2022-10-10T17:16:05;17.30;88.80
9448;DHT22;4762;48.128;11.376;2022-10-10T17:18:17;17.40;88.50
9448;DHT22;4762;48.128;11.376;2022-10-10T17:20:48;17.40;88.60
9448;DHT22;4762;48.128;11.376;2022-10-10T17:43:15;17.00;91.20
9448;DHT22;4762;48.128;11.376;2022-10-10T17:55:47;16.10;92.80
9448;DHT22;4762;48.128;11.376;2022-10-10T17:57:53;15.90;94.80
9448;DHT22;4762;48.128;11.376;2022-10-10T18:00:09;15.90;94.20
9448;DHT22;4762;48.128;11.376;2022-10-10T18:02:20;16.00;93.50
9448;DHT22;4762;48.128;11.376;2022-10-10T18:04:36;15.90;93.20
9448;DHT22;4762;48.128;11.376;2022-10-10T18:06:39;15.80;93.40
9448;DHT22;4762;48.128;11.376;2022-10-10T18:08:53;15.90;92.90
9448;DHT22;4762;48.128;11.376;2022-10-10T18:10:59;15.80;93.30
9448;DHT22;4762;48.128;11.376;2022-10-10T18:30:24;15.30;93.60
9448;DHT22;4762;48.128;11.376;2022-10-10T18:32:30;15.20;95.60
9448;DHT22;4762;48.128;11.376;2022-10-10T18:34:42;15.10;95.20
9448;DHT22;4762;48.128;11.376;2022-10-10T18:36:48;15.00;96.00
9448;DHT22;4762;48.128;11.376;2022-10-10T18:38:57;14.80;95.70
9448;DHT22;4762;48.128;11.376;2022-10-10T18:43:27;14.90;94.60
9448;DHT22;4762;48.128;11.376;2022-10-10T18:45:40;14.70;96.00
9448;DHT22;4762;48.128;11.376;2022-10-10T18:47:52;14.60;96.50
9448;DHT22;4762;48.128;11.376;2022-10-10T18:49:57;14.60;96.30
9448;DHT22;4762;48.128;11.376;2022-10-10T18:52:00;14.50;96.10
9448;DHT22;4762;48.128;11.376;2022-10-10T18:54:07;14.60;95.10
9448;DHT22;4762;48.128;11.376;2022-10-10T18:56:14;14.50;95.70
9448;DHT22;4762;48.128;11.376;2022-10-10T18:58:26;14.60;95.40
9448;DHT22;4762;48.128;11.376;2022-10-10T19:00:38;14.40;96.60
9448;DHT22;4762;48.128;11.376;2022-10-10T19:02:49;14.30;95.70
9448;DHT22;4762;48.128;11.376;2022-10-10T19:04:59;14.30;95.30
9448;DHT22;4762;48.128;11.376;2022-10-10T19:07:03;14.30;95.70
9448;DHT22;4762;48.128;11.376;2022-10-10T19:09:08;14.30;95.40
9448;DHT22;4762;48.128;11.376;2022-10-10T19:28:32;13.80;96.10
9448;DHT22;4762;48.128;11.376;2022-10-10T19:30:49;13.80;96.40
9448;DHT22;4762;48.128;11.376;2022-10-10T19:32:52;13.80;95.80
9448;DHT22;4762;48.128;11.376;2022-10-10T19:34:59;13.80;95.90
9448;DHT22;4762;48.128;11.376;2022-10-10T19:37:02;13.80;95.80
9448;DHT22;4762;48.128;11.376;2022-10-10T19:39:11;13.70;96.10
9448;DHT22;4762;48.128;11.376;2022-10-10T19:41:13;13.50;97.50
9448;DHT22;4762;48.128;11.376;2022-10-10T19:43:18;13.50;97.80
9448;DHT22;4762;48.128;11.376;2022-10-10T19:45:21;13.50;98.20
9448;DHT22;4762;48.128;11.376;2022-10-10T19:47:25;13.40;98.00
9448;DHT22;4762;48.128;11.376;2022-10-10T19:49:29;13.50;97.40
9448;DHT22;4762;48.128;11.376;2022-10-10T19:51:36;13.50;97.20
9448;DHT22;4762;48.128;11.376;2022-10-10T19:53:43;13.50;97.20
9448;DHT22;4762;48.128;11.376;2022-10-10T19:55:57;13.50;96.90
9448;DHT22;4762;48.128;11.376;2022-10-10T19:57:58;13.40;96.80
9448;DHT22;4762;48.128;11.376;2022-10-10T20:00:02;13.40;96.70
9448;DHT22;4762;48.128;11.376;2022-10-10T20:02:08;13.30;96.90
9448;DHT22;4762;48.128;11.376;2022-10-10T20:04:16;13.30;97.10
9448;DHT22;4762;48.128;11.376;2022-10-10T20:06:20;13.20;97.10
9448;DHT22;4762;48.128;11.376;2022-10-10T20:08:24;13.10;97.20
9448;DHT22;4762;48.128;11.376;2022-10-10T20:10:28;13.20;97.30
9448;DHT22;4762;48.128;11.376;2022-10-10T20:12:31;13.10;97.10
9448;DHT22;4762;48.128;11.376;2022-10-10T20:14:35;13.10;97.50
9448;DHT22;4762;48.128;11.376;2022-10-10T20:16:38;13.20;96.60
9448;DHT22;4762;48.128;11.376;2022-10-10T20:18:44;13.00;97.10
9448;DHT22;4762;48.128;11.376;2022-10-10T20:38:04;12.70;97.10
9448;DHT22;4762;48.128;11.376;2022-10-10T20:40:09;12.60;98.30
9448;DHT22;4762;48.128;11.376;2022-10-10T20:42:12;12.60;98.40
9448;DHT22;4762;48.128;11.376;2022-10-10T20:44:16;12.50;97.70
9448;DHT22;4762;48.128;11.376;2022-10-10T20:46:21;12.40;97.50
9448;DHT22;4762;48.128;11.376;2022-10-10T20:48:31;12.40;97.30
9448;DHT22;4762;48.128;11.376;2022-10-10T20:50:35;12.50;96.90
9448;DHT22;4762;48.128;11.376;2022-10-10T21:09:59;12.00;96.80
9448;DHT22;4762;48.128;11.376;2022-10-10T21:12:11;12.00;96.30
9448;DHT22;4762;48.128;11.376;2022-10-10T21:14:20;11.90;96.60
9448;DHT22;4762;48.128;11.376;2022-10-10T21:33:58;11.50;97.50
9448;DHT22;4762;48.128;11.376;2022-10-10T21:38:34;11.40;97.50
9448;DHT22;4762;48.128;11.376;2022-10-10T21:41:04;11.30;97.60
9448;DHT22;4762;48.128;11.376;2022-10-10T21:43:21;11.20;98.00
9448;DHT22;4762;48.128;11.376;2022-10-10T22:02:55;11.10;97.80